Monee, IL (60449)

6:52 AM CST on February 14, 2016 (GMT -0600)
South Creek Estates | | Change Station
CLOSE
Current Station
Personal Weather Station
Location: Frankfort, IL
Elevation: 751 ft
Nearby Weather Stations

Elev 751 ft 41.43 °N, 87.86 °W | Updated 22 seconds ago

Mostly Cloudy
Mostly Cloudy
13.1 °F
Feels Like 13 °F
N
2.9
Wind Variable Wind from SE
Gusts 4.9 mph

Today
High -- | Low -- °F
--% Chance of Precip.
Yesterday
High -- | Low -- °F
Precip. -- in
Pressure 30.38 in
Visibility 10.0 miles
Clouds Scattered Clouds 9500 ft
Windchill 13 °F
Dew Point 1 °F
Humidity 59%
Rainfall 0.00 in
Snow Depth Not available.
6:48 AM 5:23 PM
Waxing Crescent, 41% visible
METAR KIGQ 141235Z AUTO 13009KT 10SM SCT095 M10/M16 A3038 RMK AO2 T11041165
Pressure 30.38 in
Visibility 10.0 miles
Clouds Scattered Clouds 9500 ft
Windchill 13 °F
Dew Point 1 °F
Humidity 59%
Rainfall 0.00 in
Snow Depth Not available.
6:48 AM 5:23 PM
Waxing Crescent, 41% visible
METAR KIGQ 141235Z AUTO 13009KT 10SM SCT095 M10/M16 A3038 RMK AO2 T11041165

10-Day Weather Forecast

Almanac

Astronomy

Feb. 14, 2016 Rise Set
Actual Time
Civil Twilight
Nautical Twilight
Astronomical Twilight
Moon
Length of Visible Light
Length of Day
Tomorrow will be .
, % of the Moon is Illuminated

Today's Extremes

State Highs State Lows

Community

WunderPhotos

Upload Photos

1,892,775 photos uploaded!

WunderBlog® & News

Nearby

Air Quality

  Air Quality AQ Index Pollutant
Not available.

Snow Depth

Station Depth Elevation

Earthquake Activity

City Distance Mag. Time & Date
Minimum magnitude displayed is 2.5.

Coastal Water Temperatures

Place Temperature

Stations

Nearby Weather Stations

Station Location Temp. Windchill Dew Point Humidity Wind Precip. Elev Updated Type
                   

Watches & Warnings

There are currently no watches in effect.